createdAt,value
2022-10-13T00:00:11.715Z,15.56
2022-10-13T00:02:38.337Z,15.92
2022-10-13T00:05:05.283Z,16.02
2022-10-13T00:07:31.943Z,16.46
2022-10-13T00:09:58.535Z,15.69
2022-10-13T00:12:25.190Z,15.23
2022-10-13T00:14:51.766Z,15.46
2022-10-13T00:17:18.376Z,15.09
2022-10-13T00:19:45.715Z,14.40
2022-10-13T00:22:12.551Z,14.37
2022-10-13T00:24:39.192Z,14.12
2022-10-13T00:27:05.787Z,14.01
2022-10-13T00:29:32.384Z,13.67
2022-10-13T00:31:58.968Z,13.27
2022-10-13T00:34:25.583Z,12.87
2022-10-13T00:36:52.249Z,14.29
2022-10-13T00:39:18.953Z,13.21
2022-10-13T00:41:45.564Z,13.30
2022-10-13T00:44:49.772Z,14.25
2022-10-13T00:47:16.580Z,14.26
2022-10-13T00:49:43.256Z,14.31
2022-10-13T00:52:10.055Z,14.61
2022-10-13T00:54:36.803Z,13.80
2022-10-13T00:57:04.652Z,12.97
2022-10-13T00:59:31.773Z,12.85
2022-10-13T01:02:00.716Z,12.00
2022-10-13T01:04:34.190Z,12.86
2022-10-13T01:07:02.873Z,13.78
2022-10-13T01:09:29.618Z,13.42
2022-10-13T01:12:11.191Z,12.97
2022-10-13T01:15:03.416Z,12.59
2022-10-13T01:18:10.564Z,13.22
2022-10-13T01:20:52.908Z,13.62
2022-10-13T01:23:40.867Z,12.90
2022-10-13T01:26:25.421Z,12.76
2022-10-13T01:29:10.690Z,12.52
2022-10-13T01:31:52.565Z,12.16
2022-10-13T01:34:30.806Z,12.59
2022-10-13T01:37:09.183Z,12.07
2022-10-13T01:39:44.808Z,12.39
2022-10-13T01:42:33.921Z,11.99
2022-10-13T01:45:02.971Z,11.33
2022-10-13T01:47:34.256Z,10.86
2022-10-13T01:50:03.224Z,10.85
2022-10-13T01:52:37.313Z,10.82
2022-10-13T01:55:12.489Z,11.45
2022-10-13T01:57:42.068Z,10.93
2022-10-13T02:00:15.356Z,12.00
2022-10-13T02:03:06.216Z,12.12
2022-10-13T02:05:55.728Z,11.95
2022-10-13T02:08:36.669Z,11.90
2022-10-13T02:11:23.208Z,12.10
2022-10-13T02:14:04.854Z,12.42
2022-10-13T02:16:36.956Z,12.25
2022-10-13T02:19:06.434Z,12.19
2022-10-13T02:21:33.713Z,13.17
2022-10-13T02:24:00.669Z,13.41
2022-10-13T02:26:27.831Z,13.17
2022-10-13T02:28:54.433Z,13.35
2022-10-13T02:31:21.007Z,13.10
2022-10-13T02:33:47.574Z,13.21
2022-10-13T02:36:14.226Z,12.94
2022-10-13T02:38:40.839Z,12.75
2022-10-13T02:41:07.428Z,13.40
2022-10-13T02:43:34.317Z,13.43
2022-10-13T02:46:00.928Z,13.00
2022-10-13T02:48:27.736Z,12.76
2022-10-13T02:50:54.434Z,12.88
2022-10-13T02:53:21.173Z,12.75
2022-10-13T02:55:47.815Z,13.05
2022-10-13T02:58:14.583Z,12.59
2022-10-13T03:00:41.336Z,12.98
2022-10-13T03:03:07.984Z,13.01
2022-10-13T03:05:34.564Z,13.26
2022-10-13T03:08:01.165Z,13.52
2022-10-13T03:10:27.781Z,13.39
2022-10-13T03:12:55.240Z,14.35
2022-10-13T03:15:21.912Z,14.01
2022-10-13T03:17:49.074Z,14.82
2022-10-13T03:20:16.070Z,14.37
2022-10-13T03:22:47.301Z,14.96
2022-10-13T03:25:16.259Z,15.28
2022-10-13T03:27:42.861Z,15.07
2022-10-13T03:30:10.306Z,14.92
2022-10-13T03:32:36.936Z,14.92
2022-10-13T03:35:03.888Z,15.18
2022-10-13T03:37:30.497Z,14.76
2022-10-13T03:39:57.129Z,14.65
2022-10-13T03:42:23.743Z,13.99
2022-10-13T03:44:55.193Z,13.83
2022-10-13T03:47:22.708Z,14.79
2022-10-13T03:49:49.347Z,14.40
2022-10-13T03:52:16.038Z,13.95
2022-10-13T03:54:42.861Z,13.96
2022-10-13T03:57:09.596Z,13.66
2022-10-13T03:59:37.121Z,13.20
2022-10-13T04:02:04.130Z,14.10
2022-10-13T04:04:30.746Z,13.17
2022-10-13T04:06:57.484Z,12.86
2022-10-13T04:09:24.186Z,12.62
2022-10-13T04:11:52.129Z,12.20
2022-10-13T04:14:20.718Z,12.60
2022-10-13T04:16:47.807Z,12.71
2022-10-13T04:19:15.893Z,12.16
2022-10-13T04:21:44.101Z,12.16
2022-10-13T04:24:13.344Z,12.17
2022-10-13T04:26:40.908Z,11.62
2022-10-13T04:29:10.811Z,12.08
2022-10-13T04:31:38.382Z,11.95
2022-10-13T04:34:05.290Z,11.68
2022-10-13T04:36:32.026Z,12.17
2022-10-13T04:38:58.636Z,12.32
2022-10-13T04:41:25.282Z,12.19
2022-10-13T04:43:53.552Z,12.47
2022-10-13T04:46:22.878Z,12.54
2022-10-13T04:48:50.695Z,12.52
2022-10-13T04:51:21.677Z,12.17
2022-10-13T04:53:48.758Z,11.89
2022-10-13T04:56:17.780Z,11.57
2022-10-13T04:58:46.565Z,11.52
2022-10-13T05:01:22.125Z,11.67
2022-10-13T05:03:57.847Z,11.77
2022-10-13T05:06:28.809Z,11.67
2022-10-13T05:08:55.856Z,11.97
2022-10-13T05:11:24.117Z,11.44
2022-10-13T05:13:50.737Z,11.69
2022-10-13T05:16:20.733Z,11.56
2022-10-13T05:18:48.294Z,11.24
2022-10-13T05:21:18.592Z,11.57
2022-10-13T05:23:46.118Z,11.06
2022-10-13T05:26:15.573Z,11.07
2022-10-13T05:28:42.795Z,10.93
2022-10-13T05:31:13.603Z,10.95
2022-10-13T05:33:41.076Z,11.33
2022-10-13T05:36:11.144Z,11.68
2022-10-13T05:38:38.899Z,11.78
2022-10-13T05:41:08.468Z,10.87
2022-10-13T05:43:36.075Z,11.20
2022-10-13T05:46:03.881Z,11.25
2022-10-13T05:48:30.599Z,12.05
2022-10-13T05:51:00.568Z,11.05
2022-10-13T05:53:31.870Z,10.60
2022-10-13T05:56:08.495Z,11.44
2022-10-13T05:58:41.133Z,11.83
2022-10-13T06:01:13.319Z,12.10
2022-10-13T06:03:42.135Z,12.61
2022-10-13T06:06:09.726Z,12.75
2022-10-13T06:08:38.352Z,12.31
2022-10-13T06:11:07.036Z,12.00
2022-10-13T06:13:33.687Z,12.41
2022-10-13T06:16:00.647Z,12.09
2022-10-13T06:18:27.949Z,11.87
2022-10-13T06:20:54.634Z,11.93
2022-10-13T06:23:21.253Z,12.27
2022-10-13T06:25:52.724Z,11.92
2022-10-13T06:28:20.713Z,11.55
2022-10-13T06:30:50.669Z,11.85
2022-10-13T06:33:17.630Z,11.62
2022-10-13T06:35:44.244Z,10.88
2022-10-13T06:38:11.197Z,9.92
2022-10-13T06:40:37.813Z,10.49
2022-10-13T06:43:04.787Z,10.65
2022-10-13T06:45:31.371Z,10.88
2022-10-13T06:47:57.945Z,10.74
2022-10-13T06:50:24.914Z,10.01
2022-10-13T06:52:51.544Z,10.52
2022-10-13T06:55:18.114Z,9.86
2022-10-13T06:57:44.684Z,9.68
2022-10-13T07:00:11.592Z,9.54
2022-10-13T07:02:38.170Z,9.23
2022-10-13T07:05:05.187Z,9.43
2022-10-13T07:07:31.751Z,9.47
2022-10-13T07:09:58.376Z,8.62
2022-10-13T07:12:25.062Z,8.07
2022-10-13T07:14:51.630Z,7.39
2022-10-13T07:17:18.659Z,7.73
2022-10-13T07:19:45.469Z,7.74
2022-10-13T07:22:12.075Z,8.08
2022-10-13T07:24:38.655Z,7.34
2022-10-13T07:27:07.828Z,7.38
2022-10-13T07:29:34.768Z,7.50
2022-10-13T07:32:01.339Z,7.63
2022-10-13T07:34:27.925Z,7.59
2022-10-13T07:36:54.500Z,7.82
2022-10-13T07:39:21.081Z,7.91
2022-10-13T07:41:51.055Z,7.41
2022-10-13T07:44:18.193Z,7.53
2022-10-13T07:46:45.921Z,7.80
2022-10-13T07:49:15.361Z,7.60
2022-10-13T07:51:43.432Z,7.54
2022-10-13T07:54:10.320Z,7.49
2022-10-13T07:56:36.916Z,7.26
2022-10-13T07:59:03.810Z,7.33
2022-10-13T08:01:30.467Z,7.18
2022-10-13T08:03:57.090Z,7.03
2022-10-13T08:06:24.063Z,7.25
2022-10-13T08:08:50.764Z,7.26
2022-10-13T08:11:18.283Z,7.56
2022-10-13T08:13:51.682Z,7.23
2022-10-13T08:16:19.015Z,7.55
2022-10-13T08:18:46.414Z,7.37
2022-10-13T08:24:02.590Z,7.66
2022-10-13T08:26:29.372Z,7.46
2022-10-13T08:29:20.244Z,8.15
2022-10-13T08:31:45.177Z,7.63
2022-10-13T08:34:12.440Z,7.57
2022-10-13T08:36:39.662Z,8.35
2022-10-13T08:39:09.535Z,8.55
2022-10-13T08:41:40.434Z,8.67
2022-10-13T08:47:33.247Z,6.34
2022-10-13T08:50:05.208Z,6.79
2022-10-13T08:52:53.831Z,7.22
2022-10-13T08:55:27.909Z,6.22
2022-10-13T08:57:54.552Z,6.60
2022-10-13T09:00:21.293Z,6.55
2022-10-13T09:02:50.083Z,6.09
2022-10-13T09:05:34.727Z,6.20
2022-10-13T09:08:04.538Z,5.76
2022-10-13T09:10:31.188Z,5.69
2022-10-13T09:12:57.833Z,5.41
2022-10-13T09:15:24.469Z,6.04
2022-10-13T09:18:11.617Z,5.77
2022-10-13T09:20:38.631Z,6.98
2022-10-13T09:23:07.117Z,6.69
2022-10-13T09:25:45.974Z,5.98
2022-10-13T09:28:24.393Z,6.02
2022-10-13T09:31:09.164Z,6.03
2022-10-13T09:33:38.411Z,5.83
2022-10-13T09:36:09.185Z,5.76
2022-10-13T09:38:35.906Z,5.65
2022-10-13T09:41:22.791Z,5.92
2022-10-13T09:43:49.387Z,5.98
2022-10-13T09:46:24.972Z,5.91
2022-10-13T09:49:00.216Z,5.74
2022-10-13T09:51:41.637Z,6.08
2022-10-13T09:54:36.132Z,6.15
2022-10-13T09:57:25.642Z,5.77
2022-10-13T10:00:11.985Z,6.22
2022-10-13T10:03:00.943Z,5.74
2022-10-13T10:05:33.293Z,6.00
2022-10-13T10:08:14.546Z,6.51
2022-10-13T10:10:42.265Z,6.27
2022-10-13T10:13:13.878Z,6.30
2022-10-13T10:16:11.610Z,6.41
2022-10-13T10:18:48.201Z,6.91
2022-10-13T10:21:42.351Z,6.47
2022-10-13T10:24:14.898Z,6.65
2022-10-13T10:26:55.888Z,6.80
2022-10-13T10:29:28.408Z,6.59
2022-10-13T10:32:15.507Z,6.60
2022-10-13T10:34:53.992Z,6.63
2022-10-13T10:37:38.750Z,7.28
2022-10-13T10:40:22.028Z,7.71
2022-10-13T10:43:03.112Z,7.51
2022-10-13T10:45:40.207Z,7.85
2022-10-13T10:48:28.535Z,8.79
2022-10-13T10:50:56.405Z,8.99
2022-10-13T10:53:53.557Z,9.66
2022-10-13T10:56:34.910Z,9.11
2022-10-13T10:59:22.999Z,10.03
2022-10-13T11:01:55.618Z,11.05
2022-10-13T11:04:43.332Z,11.81
2022-10-13T11:07:23.643Z,11.64
2022-10-13T11:09:53.163Z,10.27
2022-10-13T11:12:23.648Z,10.66
2022-10-13T11:15:13.211Z,10.70
2022-10-13T11:17:42.266Z,10.71
2022-10-13T11:20:18.069Z,9.94
2022-10-13T11:23:07.654Z,10.48
2022-10-13T11:25:48.198Z,10.68
2022-10-13T11:28:20.626Z,11.35
2022-10-13T11:30:50.966Z,10.78
2022-10-13T11:33:35.577Z,11.62
2022-10-13T11:36:29.821Z,12.61
2022-10-13T11:39:37.388Z,11.61
2022-10-13T11:42:22.559Z,11.87
2022-10-13T11:44:55.301Z,11.72
2022-10-13T11:47:43.703Z,11.44
2022-10-13T11:50:33.587Z,11.85
2022-10-13T11:53:12.353Z,11.06
2022-10-13T11:55:58.609Z,11.29
2022-10-13T11:58:28.180Z,10.63
2022-10-13T12:01:03.687Z,10.50
2022-10-13T12:03:33.851Z,10.98
2022-10-13T12:06:04.538Z,10.56
2022-10-13T12:08:35.780Z,9.98
2022-10-13T12:11:04.816Z,10.52
2022-10-13T12:13:33.958Z,11.27
2022-10-13T12:16:06.621Z,11.37
2022-10-13T12:18:33.203Z,11.13
2022-10-13T12:21:12.776Z,10.81
2022-10-13T12:23:40.031Z,11.88
2022-10-13T12:26:07.987Z,11.85
2022-10-13T12:28:54.735Z,11.94
2022-10-13T12:31:40.153Z,12.31
2022-10-13T12:34:27.951Z,12.81
2022-10-13T12:37:28.224Z,13.70
2022-10-13T12:40:00.319Z,14.55
2022-10-13T12:42:37.776Z,13.10
2022-10-13T12:45:06.072Z,12.74
2022-10-13T12:47:59.000Z,13.44
2022-10-13T12:50:25.533Z,12.50
2022-10-13T12:52:56.181Z,12.74
2022-10-13T12:55:23.557Z,12.29
2022-10-13T12:57:52.661Z,12.89
2022-10-13T13:00:19.440Z,13.38
2022-10-13T13:02:55.719Z,13.06
2022-10-13T13:05:40.893Z,13.30
2022-10-13T13:08:30.778Z,13.12
2022-10-13T13:11:06.071Z,12.70
2022-10-13T13:13:34.236Z,12.15
2022-10-13T13:16:15.322Z,11.76
2022-10-13T13:18:44.474Z,11.66
2022-10-13T13:21:14.285Z,12.19
2022-10-13T13:23:42.659Z,11.70
2022-10-13T13:26:16.897Z,12.61
2022-10-13T13:28:49.078Z,12.44
2022-10-13T13:31:18.784Z,12.30
2022-10-13T13:33:46.852Z,11.85
2022-10-13T13:36:22.239Z,11.53
2022-10-13T13:38:49.766Z,11.89
2022-10-13T13:41:16.915Z,12.55
2022-10-13T13:43:46.237Z,12.24
2022-10-13T13:46:17.810Z,12.05
2022-10-13T13:48:44.390Z,12.25
2022-10-13T13:51:11.050Z,12.33
2022-10-13T13:53:38.037Z,11.61
2022-10-13T13:56:05.410Z,10.99
2022-10-13T13:58:32.052Z,11.64
2022-10-13T14:00:59.669Z,11.70
2022-10-13T14:03:26.276Z,11.30
2022-10-13T14:05:52.948Z,11.23
2022-10-13T14:08:19.881Z,10.53
2022-10-13T14:10:46.682Z,10.81
2022-10-13T14:13:13.434Z,10.66
2022-10-13T14:15:40.056Z,10.29
2022-10-13T14:18:06.858Z,10.52
2022-10-13T14:20:33.791Z,11.16
2022-10-13T14:23:00.416Z,11.17
2022-10-13T14:25:27.020Z,11.41
2022-10-13T14:27:53.639Z,11.69
2022-10-13T14:30:20.204Z,11.40
2022-10-13T14:32:46.766Z,11.47
2022-10-13T14:35:13.326Z,11.01
2022-10-13T14:37:40.468Z,11.57
2022-10-13T14:40:07.606Z,11.76
2022-10-13T14:42:34.299Z,11.28
2022-10-13T14:45:00.909Z,12.19
2022-10-13T14:47:27.474Z,11.84
2022-10-13T14:49:54.054Z,13.46
2022-10-13T14:52:20.688Z,11.77
2022-10-13T14:54:47.292Z,10.96
2022-10-13T14:57:13.870Z,10.73
2022-10-13T14:59:40.498Z,10.78
2022-10-13T15:02:07.083Z,10.64
2022-10-13T15:04:33.709Z,11.51
2022-10-13T15:07:00.287Z,12.86
2022-10-13T15:09:38.633Z,12.70
2022-10-13T15:12:13.570Z,13.02
2022-10-13T15:14:40.151Z,12.83
2022-10-13T15:17:06.803Z,12.72
2022-10-13T15:19:33.579Z,12.29
2022-10-13T15:22:00.400Z,12.40
2022-10-13T15:24:27.064Z,11.87
2022-10-13T15:26:53.753Z,12.38
2022-10-13T15:29:20.405Z,11.70
2022-10-13T15:31:47.064Z,11.69
2022-10-13T15:34:13.688Z,12.09
2022-10-13T15:36:40.532Z,12.31
2022-10-13T15:39:10.460Z,12.61
2022-10-13T15:41:38.326Z,12.04
2022-10-13T15:44:05.086Z,12.14
2022-10-13T15:46:31.781Z,12.51
2022-10-13T15:48:58.478Z,11.84
2022-10-13T15:51:25.281Z,11.66
2022-10-13T15:53:53.908Z,11.46
2022-10-13T15:56:20.636Z,11.85
2022-10-13T15:58:47.245Z,12.32
2022-10-13T16:01:14.716Z,12.54
2022-10-13T16:03:42.107Z,12.47
2022-10-13T16:06:11.236Z,12.51
2022-10-13T16:08:39.894Z,13.05
2022-10-13T16:11:16.321Z,13.28
2022-10-13T16:13:48.094Z,13.40
2022-10-13T16:16:18.940Z,16.16
2022-10-13T16:18:46.414Z,15.15
2022-10-13T16:21:18.516Z,15.38
2022-10-13T16:23:47.433Z,14.61
2022-10-13T16:26:17.752Z,14.23
2022-10-13T16:28:45.167Z,14.03
2022-10-13T16:31:15.013Z,13.78
2022-10-13T16:33:43.879Z,13.37
2022-10-13T16:36:13.630Z,13.72
2022-10-13T16:38:40.310Z,13.97
2022-10-13T16:41:10.104Z,13.50
2022-10-13T16:43:36.837Z,13.43
2022-10-13T16:46:05.779Z,13.51
2022-10-13T16:48:33.127Z,13.79
2022-10-13T16:51:05.110Z,13.92
2022-10-13T16:53:31.900Z,19.95
2022-10-13T16:55:58.785Z,13.80
2022-10-13T16:58:25.958Z,13.24
2022-10-13T17:00:52.674Z,13.56
2022-10-13T17:03:20.759Z,13.67
2022-10-13T17:05:47.446Z,14.49
2022-10-13T17:08:14.112Z,14.17
2022-10-13T17:10:41.728Z,17.50
2022-10-13T17:13:08.429Z,17.85
2022-10-13T17:15:35.149Z,16.64
2022-10-13T17:18:01.793Z,24.10
2022-10-13T17:20:28.558Z,21.05
2022-10-13T17:22:55.177Z,20.01
2022-10-13T17:25:21.827Z,18.33
2022-10-13T17:27:48.516Z,17.42
2022-10-13T17:30:15.273Z,15.12
2022-10-13T17:32:42.036Z,14.79
2022-10-13T17:35:09.061Z,15.50
2022-10-13T17:37:35.706Z,14.70
2022-10-13T17:40:02.367Z,16.09
2022-10-13T17:42:29.171Z,16.14
2022-10-13T17:44:56.155Z,17.71
2022-10-13T17:47:23.367Z,18.38
2022-10-13T17:49:50.514Z,19.31
2022-10-13T17:52:17.575Z,23.65
2022-10-13T17:54:44.383Z,15.38
2022-10-13T17:57:10.993Z,16.20
2022-10-13T17:59:37.563Z,18.16
2022-10-13T18:02:04.292Z,19.21
2022-10-13T18:04:31.016Z,22.20
2022-10-13T18:06:57.602Z,28.44
2022-10-13T18:09:24.213Z,17.34
2022-10-13T18:11:53.933Z,15.82
2022-10-13T18:14:22.799Z,15.92
2022-10-13T18:16:52.685Z,15.28
2022-10-13T18:19:19.923Z,15.46
2022-10-13T18:21:46.845Z,15.40
2022-10-13T18:24:13.456Z,15.26
2022-10-13T18:26:40.991Z,21.01
2022-10-13T18:29:11.074Z,22.29
2022-10-13T18:31:39.997Z,17.20
2022-10-13T18:34:10.233Z,14.67
2022-10-13T18:36:42.791Z,14.78
2022-10-13T18:39:15.722Z,15.35
2022-10-13T18:41:43.002Z,14.97
2022-10-13T18:44:09.719Z,15.29
2022-10-13T18:46:38.447Z,15.03
2022-10-13T18:49:07.186Z,15.43
2022-10-13T18:51:36.275Z,15.15
2022-10-13T18:54:05.148Z,14.42
2022-10-13T18:56:33.873Z,14.80
2022-10-13T18:59:02.405Z,16.14
2022-10-13T19:01:32.165Z,17.36
2022-10-13T19:03:59.185Z,16.50
2022-10-13T19:06:27.888Z,16.13
2022-10-13T19:08:59.849Z,15.91
2022-10-13T19:11:29.500Z,16.17
2022-10-13T19:13:58.614Z,16.22
2022-10-13T19:16:27.981Z,16.70
2022-10-13T19:18:55.575Z,15.97
2022-10-13T19:21:23.499Z,15.90
2022-10-13T19:23:50.300Z,16.22
2022-10-13T19:26:29.242Z,15.53
2022-10-13T19:28:59.605Z,14.83
2022-10-13T19:31:29.388Z,14.82
2022-10-13T19:33:57.572Z,14.93
2022-10-13T19:36:37.318Z,14.35
2022-10-13T19:39:21.564Z,17.05
2022-10-13T19:41:50.814Z,15.98
2022-10-13T19:44:19.731Z,14.61
2022-10-13T19:46:47.486Z,13.79
2022-10-13T19:49:17.380Z,18.07
2022-10-13T19:51:45.500Z,30.59
2022-10-13T19:54:12.360Z,19.72
2022-10-13T19:56:39.113Z,14.88
2022-10-13T19:59:05.873Z,17.20
2022-10-13T20:01:34.118Z,18.75
2022-10-13T20:04:00.894Z,19.72
2022-10-13T20:06:27.685Z,14.47
2022-10-13T20:08:54.329Z,14.40
2022-10-13T20:11:24.029Z,13.73
2022-10-13T20:13:52.409Z,16.91
2022-10-13T20:16:22.690Z,15.04
2022-10-13T20:18:57.476Z,13.44
2022-10-13T20:21:25.722Z,12.66
2022-10-13T20:23:53.334Z,10.99
2022-10-13T20:26:20.962Z,10.45
2022-10-13T20:28:49.593Z,10.37
2022-10-13T20:31:18.287Z,11.00
2022-10-13T20:33:44.980Z,10.63
2022-10-13T20:36:14.205Z,9.55
2022-10-13T20:38:40.943Z,10.46
2022-10-13T20:41:08.699Z,9.99
2022-10-13T20:43:36.213Z,10.03
2022-10-13T20:46:05.949Z,10.12
2022-10-13T20:48:57.849Z,9.52
2022-10-13T20:51:23.261Z,9.94
2022-10-13T20:53:50.126Z,9.40
2022-10-13T20:56:22.612Z,9.00
2022-10-13T20:58:50.427Z,9.26
2022-10-13T21:01:21.120Z,9.83
2022-10-13T21:03:54.234Z,9.48
2022-10-13T21:06:23.100Z,9.55
2022-10-13T21:08:50.530Z,9.75
2022-10-13T21:11:19.502Z,10.05
2022-10-13T21:13:46.891Z,9.99
2022-10-13T21:16:16.732Z,9.81
2022-10-13T21:18:46.023Z,9.16
2022-10-13T21:21:12.614Z,9.27
2022-10-13T21:23:39.306Z,9.53
2022-10-13T21:26:08.418Z,9.40
2022-10-13T21:28:37.873Z,8.96
2022-10-13T21:31:10.479Z,9.30
2022-10-13T21:33:39.179Z,8.73
2022-10-13T21:36:15.721Z,8.93
2022-10-13T21:38:44.990Z,9.60
2022-10-13T21:41:13.636Z,9.20
2022-10-13T21:43:40.619Z,9.76
2022-10-13T21:46:22.962Z,9.80
2022-10-13T21:49:01.987Z,9.21
2022-10-13T21:51:40.221Z,9.08
2022-10-13T21:54:10.857Z,9.25
2022-10-13T21:56:38.372Z,9.74
2022-10-13T21:59:06.600Z,9.02
2022-10-13T22:01:33.619Z,9.41
2022-10-13T22:04:02.172Z,10.21
2022-10-13T22:06:31.056Z,9.33
2022-10-13T22:09:01.306Z,10.35
2022-10-13T22:11:30.907Z,10.32
2022-10-13T22:13:58.330Z,9.83
2022-10-13T22:16:28.144Z,10.25
2022-10-13T22:18:56.863Z,9.74
2022-10-13T22:21:27.360Z,9.94
2022-10-13T22:23:58.009Z,9.40
2022-10-13T22:26:26.529Z,9.05
2022-10-13T22:28:53.221Z,9.12
2022-10-13T22:31:20.223Z,9.13
2022-10-13T22:33:46.903Z,9.36
2022-10-13T22:36:18.860Z,9.44
2022-10-13T22:38:47.697Z,10.03
2022-10-13T22:41:16.023Z,9.53
2022-10-13T22:43:42.983Z,9.63
2022-10-13T22:46:09.758Z,9.75
2022-10-13T22:48:40.542Z,9.45
2022-10-13T22:51:08.504Z,9.26
2022-10-13T22:53:35.147Z,9.90
2022-10-13T22:56:09.845Z,9.96
2022-10-13T22:58:36.543Z,10.03
2022-10-13T23:01:13.835Z,9.27
2022-10-13T23:03:41.364Z,9.72
2022-10-13T23:06:13.824Z,9.68
2022-10-13T23:08:41.567Z,9.70
2022-10-13T23:11:08.852Z,9.92
2022-10-13T23:13:35.443Z,9.80
2022-10-13T23:16:08.434Z,10.10
2022-10-13T23:18:35.228Z,9.84
2022-10-13T23:21:06.706Z,10.16
2022-10-13T23:23:34.619Z,9.21
2022-10-13T23:26:07.045Z,9.46
2022-10-13T23:28:34.766Z,9.73
2022-10-13T23:31:03.566Z,9.25
2022-10-13T23:33:30.835Z,9.00
2022-10-13T23:35:59.798Z,9.48
2022-10-13T23:38:28.563Z,8.66
2022-10-13T23:40:55.564Z,9.65
2022-10-13T23:43:22.270Z,8.70
2022-10-13T23:45:48.865Z,8.95
2022-10-13T23:48:15.587Z,8.81
2022-10-13T23:50:42.195Z,8.68
2022-10-13T23:53:08.800Z,8.92
2022-10-13T23:55:39.349Z,8.97
2022-10-13T23:58:06.607Z,8.62
